createdAt,value
2023-03-20T00:02:47.092Z,4.68
2023-03-20T00:07:53.414Z,5.45
2023-03-20T00:12:58.209Z,5.33
2023-03-20T00:18:02.224Z,4.85
2023-03-20T00:23:07.720Z,4.43
2023-03-20T00:28:40.777Z,4.25
2023-03-20T00:33:45.526Z,4.95
2023-03-20T00:38:51.434Z,5.78
2023-03-20T00:44:01.248Z,6.03
2023-03-20T00:49:05.440Z,5.65
2023-03-20T00:54:15.846Z,5.72
2023-03-20T00:59:25.010Z,6.40
2023-03-20T01:04:37.098Z,6.30
2023-03-20T01:09:42.898Z,6.15
2023-03-20T01:14:47.848Z,6.55
2023-03-20T01:19:52.212Z,7.40
2023-03-20T01:24:57.631Z,6.70
2023-03-20T01:30:01.676Z,7.22
2023-03-20T01:35:07.568Z,8.00
2023-03-20T01:40:33.636Z,7.43
2023-03-20T01:45:39.530Z,8.07
2023-03-20T01:50:43.847Z,8.63
2023-03-20T01:55:57.641Z,7.70
2023-03-20T02:01:06.392Z,7.82
2023-03-20T02:06:11.214Z,7.22
2023-03-20T02:11:38.629Z,7.75
2023-03-20T02:16:42.888Z,7.20
2023-03-20T02:22:40.095Z,6.78
2023-03-20T02:28:34.569Z,7.15
2023-03-20T02:34:17.453Z,7.57
2023-03-20T02:39:48.315Z,7.22
2023-03-20T02:45:05.325Z,6.45
2023-03-20T02:50:19.033Z,6.75
2023-03-20T02:55:34.695Z,7.00
2023-03-20T03:00:49.113Z,6.85
2023-03-20T03:05:59.233Z,6.53
2023-03-20T03:11:09.453Z,6.32
2023-03-20T03:16:19.047Z,6.25
2023-03-20T03:21:23.830Z,6.85
2023-03-20T03:26:35.669Z,6.85
2023-03-20T03:31:39.981Z,5.93
2023-03-20T03:36:51.690Z,6.30
2023-03-20T03:42:06.558Z,5.55
2023-03-20T03:47:14.722Z,5.80
2023-03-20T03:52:23.937Z,5.75
2023-03-20T03:57:35.489Z,6.38
2023-03-20T04:02:42.709Z,6.95
2023-03-20T04:07:47.657Z,7.03
2023-03-20T04:12:53.078Z,6.25
2023-03-20T04:17:57.764Z,6.60
2023-03-20T04:23:02.085Z,6.35
2023-03-20T04:28:08.446Z,6.75
2023-03-20T04:33:27.758Z,6.35
2023-03-20T04:38:40.634Z,6.68
2023-03-20T04:43:46.215Z,7.13
2023-03-20T04:48:50.956Z,6.13
2023-03-20T04:53:56.222Z,5.80
2023-03-20T04:59:01.791Z,5.72
2023-03-20T05:04:06.966Z,5.45
2023-03-20T05:09:11.596Z,6.43
2023-03-20T05:14:17.164Z,5.63
2023-03-20T05:19:43.203Z,5.75
2023-03-20T05:24:47.258Z,6.10
2023-03-20T05:30:13.336Z,6.00
2023-03-20T05:35:46.981Z,5.60
2023-03-20T05:41:09.547Z,6.22
2023-03-20T05:46:37.476Z,6.03
2023-03-20T05:51:52.229Z,5.57
2023-03-20T05:57:17.644Z,5.50
2023-03-20T06:02:36.882Z,4.40
2023-03-20T06:07:51.584Z,5.65
2023-03-20T06:12:56.992Z,5.25
2023-03-20T06:18:04.972Z,5.40
2023-03-20T06:23:09.701Z,4.68
2023-03-20T06:28:13.947Z,5.65
2023-03-20T06:33:19.494Z,4.82
2023-03-20T06:38:35.011Z,5.43
2023-03-20T06:43:45.275Z,5.40
2023-03-20T06:48:52.252Z,4.95
2023-03-20T06:53:56.582Z,5.57
2023-03-20T06:59:03.947Z,4.78
2023-03-20T07:04:09.572Z,4.70
2023-03-20T07:09:22.156Z,4.20
2023-03-20T07:14:26.343Z,5.28
2023-03-20T07:19:43.647Z,4.35
2023-03-20T07:24:47.688Z,4.45
2023-03-20T07:29:53.015Z,4.35
2023-03-20T07:34:59.146Z,4.00
2023-03-20T07:40:07.052Z,4.22
2023-03-20T07:45:18.507Z,3.78
2023-03-20T07:50:23.952Z,4.00
2023-03-20T07:55:28.003Z,4.10
2023-03-20T08:00:32.391Z,3.53
2023-03-20T08:05:38.457Z,3.72
2023-03-20T08:10:43.000Z,3.50
2023-03-20T08:15:48.708Z,4.10
2023-03-20T08:20:54.079Z,3.80
2023-03-20T08:25:58.158Z,3.67
2023-03-20T08:31:02.266Z,4.25
2023-03-20T08:36:09.257Z,3.97
2023-03-20T08:46:18.478Z,3.80
2023-03-20T08:51:23.890Z,4.40
2023-03-20T08:56:27.983Z,4.13
2023-03-20T09:01:47.826Z,4.38
2023-03-20T09:06:55.001Z,3.53
2023-03-20T09:11:59.640Z,4.30
2023-03-20T09:17:03.621Z,4.32
2023-03-20T09:22:09.155Z,4.80
2023-03-20T09:27:13.957Z,4.20
2023-03-20T09:32:18.057Z,4.15
2023-03-20T09:37:23.515Z,4.13
2023-03-20T09:42:43.186Z,4.97
2023-03-20T09:47:55.949Z,4.50
2023-03-20T09:53:07.314Z,3.88
2023-03-20T09:58:16.476Z,3.40
2023-03-20T10:03:26.344Z,3.47
2023-03-20T10:08:36.380Z,3.83
2023-03-20T10:13:56.000Z,3.60
2023-03-20T10:19:09.382Z,3.15
2023-03-20T10:24:21.249Z,3.30
2023-03-20T10:29:34.956Z,2.95
2023-03-20T10:34:59.160Z,3.08
2023-03-20T10:40:29.078Z,3.08
2023-03-20T10:45:39.592Z,2.90
2023-03-20T10:50:47.551Z,3.17
2023-03-20T10:55:58.468Z,2.97
2023-03-20T11:01:03.549Z,3.05
2023-03-20T11:06:17.430Z,3.10
2023-03-20T11:11:28.621Z,3.13
2023-03-20T11:16:36.800Z,3.63
2023-03-20T11:21:49.506Z,3.08
2023-03-20T11:26:56.613Z,4.25
2023-03-20T11:37:25.896Z,3.22
2023-03-20T11:42:34.093Z,3.40
2023-03-20T11:47:38.442Z,3.63
2023-03-20T11:52:42.531Z,3.58
2023-03-20T11:57:48.774Z,3.50
2023-03-20T12:02:53.327Z,3.67
2023-03-20T12:08:02.984Z,3.17
2023-03-20T12:13:16.170Z,3.13
2023-03-20T12:18:30.292Z,2.67
2023-03-20T12:23:40.244Z,2.60
2023-03-20T12:28:53.393Z,3.65
2023-03-20T12:34:05.985Z,2.67
2023-03-20T12:39:16.029Z,3.75
2023-03-20T12:44:41.047Z,3.60
2023-03-20T12:49:56.005Z,3.47
2023-03-20T12:55:17.730Z,3.30
2023-03-20T13:00:32.204Z,3.53
2023-03-20T13:05:46.371Z,2.70
2023-03-20T13:10:58.655Z,2.83
2023-03-20T13:16:17.966Z,3.45
2023-03-20T13:21:29.072Z,2.47
2023-03-20T13:26:39.457Z,2.70
2023-03-20T13:31:57.277Z,2.33
2023-03-20T13:37:23.487Z,2.60
2023-03-20T13:47:39.402Z,2.25
2023-03-20T13:52:50.740Z,2.90
2023-03-20T13:58:22.752Z,3.10
2023-03-20T14:03:31.605Z,3.28
2023-03-20T14:08:37.532Z,2.75
2023-03-20T14:13:47.393Z,2.42
2023-03-20T14:19:09.128Z,2.90
2023-03-20T14:24:17.235Z,2.83
2023-03-20T14:29:39.267Z,3.88
2023-03-20T14:34:50.399Z,3.20
2023-03-20T14:40:01.888Z,3.30
2023-03-20T14:45:37.681Z,3.22
2023-03-20T14:51:01.035Z,3.00
2023-03-20T14:56:12.254Z,2.78
2023-03-20T15:01:20.592Z,2.67
2023-03-20T15:06:29.818Z,2.95
2023-03-20T15:11:34.898Z,4.13
2023-03-20T15:16:39.663Z,3.92
2023-03-20T15:21:48.197Z,3.00
2023-03-20T15:26:57.436Z,3.28
2023-03-20T15:32:13.804Z,3.13
2023-03-20T15:37:24.830Z,3.75
2023-03-20T15:42:28.978Z,3.20
2023-03-20T15:47:33.203Z,2.78
2023-03-20T15:52:43.507Z,3.50
2023-03-20T15:57:50.377Z,3.45
2023-03-20T16:02:54.969Z,3.33
2023-03-20T16:08:13.846Z,4.35
2023-03-20T16:13:18.770Z,3.65
2023-03-20T16:18:23.567Z,3.90
2023-03-20T16:23:37.245Z,3.28
2023-03-20T16:28:41.293Z,3.92
2023-03-20T16:33:46.356Z,4.18
2023-03-20T16:39:00.449Z,4.13
2023-03-20T16:44:09.413Z,3.70
2023-03-20T16:50:04.554Z,3.70
2023-03-20T16:55:18.139Z,3.80
2023-03-20T17:00:28.448Z,3.70
2023-03-20T17:05:46.273Z,4.07
2023-03-20T17:10:58.326Z,4.00
2023-03-20T17:16:02.526Z,4.50
2023-03-20T17:21:07.541Z,4.57
2023-03-20T17:26:14.438Z,4.45
2023-03-20T17:36:27.150Z,4.60
2023-03-20T17:41:32.592Z,4.65
2023-03-20T17:46:50.031Z,3.95
2023-03-20T17:52:00.390Z,4.57
2023-03-20T17:57:05.821Z,5.05
2023-03-20T18:02:11.236Z,4.38
2023-03-20T18:07:16.757Z,4.22
2023-03-20T18:12:22.142Z,4.78
2023-03-20T18:17:27.861Z,5.18
2023-03-20T18:22:31.988Z,4.35
2023-03-20T18:27:37.437Z,4.47
2023-03-20T18:32:41.460Z,4.03
2023-03-20T18:37:45.757Z,4.53
2023-03-20T18:42:51.345Z,5.07
2023-03-20T18:47:55.940Z,4.80
2023-03-20T18:53:01.356Z,4.28
2023-03-20T18:58:07.044Z,4.85
2023-03-20T19:03:13.113Z,5.72
2023-03-20T19:08:17.534Z,5.55
2023-03-20T19:13:24.784Z,5.22
2023-03-20T19:18:29.076Z,5.97
2023-03-20T19:23:33.062Z,5.63
2023-03-20T19:28:41.159Z,6.22
2023-03-20T19:33:46.009Z,6.32
2023-03-20T19:38:50.244Z,5.88
2023-03-20T19:43:56.455Z,6.63
2023-03-20T19:49:00.654Z,6.17
2023-03-20T19:54:04.728Z,6.22
2023-03-20T19:59:10.135Z,6.90
2023-03-20T20:04:14.198Z,5.72
2023-03-20T20:09:18.412Z,5.43
2023-03-20T20:14:24.184Z,6.18
2023-03-20T20:19:28.543Z,5.55
2023-03-20T20:24:32.823Z,5.65
2023-03-20T20:29:38.262Z,5.05
2023-03-20T20:40:09.285Z,4.50
2023-03-20T20:45:15.448Z,4.35
2023-03-20T20:50:22.222Z,4.13
2023-03-20T20:55:26.701Z,4.63
2023-03-20T21:00:48.357Z,4.95
2023-03-20T21:05:54.057Z,4.70
2023-03-20T21:10:58.066Z,4.43
2023-03-20T21:16:03.811Z,5.05
2023-03-20T21:21:09.288Z,4.60
2023-03-20T21:26:13.369Z,4.90
2023-03-20T21:31:29.559Z,5.28
2023-03-20T21:36:35.338Z,6.30
2023-03-20T21:41:41.265Z,7.47
2023-03-20T21:47:22.600Z,7.40
2023-03-20T21:52:59.865Z,6.07
2023-03-20T22:03:10.864Z,6.50
2023-03-20T22:09:14.896Z,5.78
2023-03-20T22:25:08.486Z,4.72
2023-03-20T22:41:37.964Z,6.18
2023-03-20T22:46:39.990Z,5.53
2023-03-20T22:51:43.988Z,5.43
2023-03-20T22:56:56.645Z,4.88
2023-03-20T23:02:00.782Z,5.40
2023-03-20T23:07:06.284Z,5.65
2023-03-20T23:12:10.289Z,5.47
2023-03-20T23:17:14.634Z,5.53
2023-03-20T23:22:20.405Z,5.95
2023-03-20T23:27:24.387Z,6.50
2023-03-20T23:32:28.507Z,5.90
2023-03-20T23:37:33.969Z,6.65
2023-03-20T23:42:37.945Z,5.65
2023-03-20T23:53:19.449Z,5.82
2023-03-20T23:58:26.138Z,6.40
